Search for airport 
image banner adimage banner adimage banner ad
image banner ad

5PN8 - Lincoln Farms

Located in Calvin, United States

ICAO - 5PN8, IATA -

Data provided by Airmate  

General information

Coordinates: N40°19'44" W78°2'42"
Elevation is 1200 feet MSL.
 
View others Airports in Pennsylvania

Operational data

Special qualification required
Current time UTC:
Current local time:
Weather at : KAOO - Altoona-Blair County ( 24 km )
METAR: KAOO 091614Z AUTO 08006KT 9SM -RA FEW008 FEW029 OVC050 05/03 A2998 RMK AO2 P0001 T00500033
TAF: KAOO 091537Z 0916/1012 15010KT 4SM -RA BR OVC020 FM100200 34008G16KT 2SM -RA BR OVC006 WS020/21043KT FM100800 33008G15KT P6SM BKN009 OVC012
View NOTAMs / SUP AIP / TFR affecting this airport [VIEW]
Communications frequencies: [VIEW]

Runways:

RWY identifierQFULength (ft)Width (ft)SurfaceLDA (ft)
021420100GRASS
201420100GRASS

Airport contact information

Address: Calvin United States

Satellite view of 5PN8